sensor_id;sensor_type;location;lat;lon;timestamp;P1;durP1;ratioP1;P2;durP2;ratioP2
71343;SDS011;59146;43.850;25.948;2023-02-18T00:02:01;28.67;;;16.20;;
71343;SDS011;59146;43.850;25.948;2023-02-18T00:04:27;27.27;;;16.73;;
71343;SDS011;59146;43.850;25.948;2023-02-18T00:06:53;26.83;;;16.27;;
71343;SDS011;59146;43.850;25.948;2023-02-18T00:09:18;24.98;;;15.07;;
71343;SDS011;59146;43.850;25.948;2023-02-18T00:11:44;26.10;;;15.80;;
71343;SDS011;59146;43.850;25.948;2023-02-18T00:14:13;24.02;;;15.40;;
71343;SDS011;59146;43.850;25.948;2023-02-18T00:16:40;26.20;;;17.13;;
71343;SDS011;59146;43.850;25.948;2023-02-18T00:19:06;25.80;;;15.73;;
71343;SDS011;59146;43.850;25.948;2023-02-18T00:21:35;26.27;;;16.45;;
71343;SDS011;59146;43.850;25.948;2023-02-18T00:24:01;25.05;;;15.40;;
71343;SDS011;59146;43.850;25.948;2023-02-18T00:26:27;27.02;;;15.85;;
71343;SDS011;59146;43.850;25.948;2023-02-18T00:28:52;25.13;;;15.82;;
71343;SDS011;59146;43.850;25.948;2023-02-18T00:31:24;26.38;;;16.23;;
71343;SDS011;59146;43.850;25.948;2023-02-18T00:33:53;26.67;;;17.33;;
71343;SDS011;59146;43.850;25.948;2023-02-18T00:36:20;25.50;;;15.95;;
71343;SDS011;59146;43.850;25.948;2023-02-18T00:38:47;25.73;;;15.65;;
71343;SDS011;59146;43.850;25.948;2023-02-18T00:41:15;26.88;;;15.15;;
71343;SDS011;59146;43.850;25.948;2023-02-18T00:43:41;24.73;;;15.85;;
71343;SDS011;59146;43.850;25.948;2023-02-18T00:46:07;34.58;;;16.38;;
71343;SDS011;59146;43.850;25.948;2023-02-18T00:48:33;30.92;;;16.08;;
71343;SDS011;59146;43.850;25.948;2023-02-18T00:50:59;32.22;;;15.93;;
71343;SDS011;59146;43.850;25.948;2023-02-18T00:53:26;28.60;;;15.57;;
71343;SDS011;59146;43.850;25.948;2023-02-18T00:55:54;33.50;;;15.60;;
71343;SDS011;59146;43.850;25.948;2023-02-18T00:58:20;28.25;;;15.65;;
71343;SDS011;59146;43.850;25.948;2023-02-18T01:00:46;28.35;;;16.27;;
71343;SDS011;59146;43.850;25.948;2023-02-18T01:03:13;30.88;;;15.95;;
71343;SDS011;59146;43.850;25.948;2023-02-18T01:05:38;30.55;;;16.48;;
71343;SDS011;59146;43.850;25.948;2023-02-18T01:08:05;25.00;;;15.32;;
71343;SDS011;59146;43.850;25.948;2023-02-18T01:10:32;25.98;;;15.50;;
71343;SDS011;59146;43.850;25.948;2023-02-18T01:12:59;26.20;;;15.98;;
71343;SDS011;59146;43.850;25.948;2023-02-18T01:15:28;28.40;;;16.02;;
71343;SDS011;59146;43.850;25.948;2023-02-18T01:17:54;28.75;;;15.82;;
71343;SDS011;59146;43.850;25.948;2023-02-18T01:20:20;29.25;;;15.55;;
71343;SDS011;59146;43.850;25.948;2023-02-18T01:22:45;25.83;;;14.57;;
71343;SDS011;59146;43.850;25.948;2023-02-18T01:25:11;27.20;;;15.68;;
71343;SDS011;59146;43.850;25.948;2023-02-18T01:27:36;23.92;;;15.38;;
71343;SDS011;59146;43.850;25.948;2023-02-18T01:30:03;27.23;;;15.95;;
71343;SDS011;59146;43.850;25.948;2023-02-18T01:32:30;25.50;;;15.25;;
71343;SDS011;59146;43.850;25.948;2023-02-18T01:34:56;27.00;;;16.40;;
71343;SDS011;59146;43.850;25.948;2023-02-18T01:37:21;25.83;;;15.48;;
71343;SDS011;59146;43.850;25.948;2023-02-18T01:39:47;26.67;;;15.07;;
71343;SDS011;59146;43.850;25.948;2023-02-18T01:42:19;22.10;;;14.18;;
71343;SDS011;59146;43.850;25.948;2023-02-18T01:44:47;21.77;;;13.43;;
71343;SDS011;59146;43.850;25.948;2023-02-18T01:47:14;25.85;;;14.85;;
71343;SDS011;59146;43.850;25.948;2023-02-18T01:49:40;23.13;;;13.77;;
71343;SDS011;59146;43.850;25.948;2023-02-18T01:52:08;22.92;;;14.68;;
71343;SDS011;59146;43.850;25.948;2023-02-18T01:54:40;39.83;;;19.10;;
71343;SDS011;59146;43.850;25.948;2023-02-18T01:57:11;23.08;;;14.27;;
71343;SDS011;59146;43.850;25.948;2023-02-18T02:02:28;21.05;;;12.30;;
71343;SDS011;59146;43.850;25.948;2023-02-18T02:04:56;21.05;;;12.15;;
71343;SDS011;59146;43.850;25.948;2023-02-18T02:07:22;20.70;;;13.10;;
71343;SDS011;59146;43.850;25.948;2023-02-18T02:09:50;21.08;;;12.07;;
71343;SDS011;59146;43.850;25.948;2023-02-18T02:33:55;17.27;;;11.50;;
71343;SDS011;59146;43.850;25.948;2023-02-18T02:36:41;16.35;;;11.10;;
71343;SDS011;59146;43.850;25.948;2023-02-18T02:42:01;19.02;;;10.95;;
71343;SDS011;59146;43.850;25.948;2023-02-18T02:44:45;19.10;;;10.40;;
71343;SDS011;59146;43.850;25.948;2023-02-18T02:47:20;15.23;;;10.40;;
71343;SDS011;59146;43.850;25.948;2023-02-18T02:54:56;16.77;;;10.57;;
71343;SDS011;59146;43.850;25.948;2023-02-18T02:59:48;20.10;;;10.43;;
71343;SDS011;59146;43.850;25.948;2023-02-18T03:02:31;18.50;;;10.60;;
71343;SDS011;59146;43.850;25.948;2023-02-18T03:08:23;15.80;;;10.63;;
71343;SDS011;59146;43.850;25.948;2023-02-18T03:11:06;19.15;;;10.70;;
71343;SDS011;59146;43.850;25.948;2023-02-18T03:18:52;19.42;;;11.05;;
71343;SDS011;59146;43.850;25.948;2023-02-18T03:21:25;16.60;;;10.93;;
71343;SDS011;59146;43.850;25.948;2023-02-18T03:24:03;17.95;;;10.63;;
71343;SDS011;59146;43.850;25.948;2023-02-18T03:26:34;16.23;;;11.23;;
71343;SDS011;59146;43.850;25.948;2023-02-18T03:29:04;18.58;;;11.27;;
71343;SDS011;59146;43.850;25.948;2023-02-18T03:31:34;17.38;;;11.25;;
71343;SDS011;59146;43.850;25.948;2023-02-18T03:34:03;15.95;;;10.70;;
71343;SDS011;59146;43.850;25.948;2023-02-18T03:36:33;18.65;;;11.10;;
71343;SDS011;59146;43.850;25.948;2023-02-18T03:39:20;20.63;;;10.48;;
71343;SDS011;59146;43.850;25.948;2023-02-18T03:41:47;19.08;;;11.75;;
71343;SDS011;59146;43.850;25.948;2023-02-18T03:44:13;20.45;;;10.52;;
71343;SDS011;59146;43.850;25.948;2023-02-18T03:46:40;15.63;;;10.45;;
71343;SDS011;59146;43.850;25.948;2023-02-18T03:49:10;20.40;;;12.10;;
71343;SDS011;59146;43.850;25.948;2023-02-18T03:51:37;19.60;;;10.18;;
71343;SDS011;59146;43.850;25.948;2023-02-18T03:54:03;16.17;;;10.25;;
71343;SDS011;59146;43.850;25.948;2023-02-18T03:56:28;15.77;;;9.95;;
71343;SDS011;59146;43.850;25.948;2023-02-18T03:58:54;18.70;;;11.27;;
71343;SDS011;59146;43.850;25.948;2023-02-18T04:01:19;19.13;;;11.35;;
71343;SDS011;59146;43.850;25.948;2023-02-18T04:03:44;16.55;;;10.65;;
71343;SDS011;59146;43.850;25.948;2023-02-18T04:06:10;19.85;;;10.15;;
71343;SDS011;59146;43.850;25.948;2023-02-18T04:08:35;16.25;;;10.25;;
71343;SDS011;59146;43.850;25.948;2023-02-18T04:11:01;19.10;;;10.80;;
71343;SDS011;59146;43.850;25.948;2023-02-18T04:13:27;19.33;;;10.13;;
71343;SDS011;59146;43.850;25.948;2023-02-18T04:15:53;17.58;;;11.32;;
71343;SDS011;59146;43.850;25.948;2023-02-18T04:18:18;15.18;;;9.80;;
71343;SDS011;59146;43.850;25.948;2023-02-18T04:20:44;15.45;;;9.57;;
71343;SDS011;59146;43.850;25.948;2023-02-18T04:23:13;15.10;;;10.13;;
71343;SDS011;59146;43.850;25.948;2023-02-18T04:25:38;16.50;;;9.55;;
71343;SDS011;59146;43.850;25.948;2023-02-18T04:28:04;13.23;;;8.57;;
71343;SDS011;59146;43.850;25.948;2023-02-18T04:30:30;15.38;;;10.18;;
71343;SDS011;59146;43.850;25.948;2023-02-18T04:32:55;15.07;;;9.35;;
71343;SDS011;59146;43.850;25.948;2023-02-18T04:35:21;16.55;;;10.40;;
71343;SDS011;59146;43.850;25.948;2023-02-18T04:37:46;13.80;;;8.13;;
71343;SDS011;59146;43.850;25.948;2023-02-18T04:40:11;13.35;;;8.40;;
71343;SDS011;59146;43.850;25.948;2023-02-18T04:42:37;13.10;;;8.77;;
71343;SDS011;59146;43.850;25.948;2023-02-18T04:45:03;15.80;;;8.90;;
71343;SDS011;59146;43.850;25.948;2023-02-18T04:47:29;14.40;;;8.73;;
71343;SDS011;59146;43.850;25.948;2023-02-18T04:49:54;12.20;;;7.85;;
71343;SDS011;59146;43.850;25.948;2023-02-18T04:52:20;17.55;;;8.23;;
71343;SDS011;59146;43.850;25.948;2023-02-18T04:54:45;12.20;;;7.85;;
71343;SDS011;59146;43.850;25.948;2023-02-18T04:57:11;12.45;;;7.68;;
71343;SDS011;59146;43.850;25.948;2023-02-18T04:59:37;12.27;;;8.27;;
71343;SDS011;59146;43.850;25.948;2023-02-18T05:02:03;10.77;;;6.88;;
71343;SDS011;59146;43.850;25.948;2023-02-18T05:04:28;11.20;;;7.25;;
71343;SDS011;59146;43.850;25.948;2023-02-18T05:06:54;12.90;;;7.82;;
71343;SDS011;59146;43.850;25.948;2023-02-18T05:09:19;13.07;;;7.63;;
71343;SDS011;59146;43.850;25.948;2023-02-18T05:11:45;10.18;;;7.05;;
71343;SDS011;59146;43.850;25.948;2023-02-18T05:14:11;11.85;;;7.35;;
71343;SDS011;59146;43.850;25.948;2023-02-18T05:16:37;12.95;;;7.32;;
71343;SDS011;59146;43.850;25.948;2023-02-18T05:19:02;14.60;;;7.25;;
71343;SDS011;59146;43.850;25.948;2023-02-18T05:21:28;23.67;;;8.10;;
71343;SDS011;59146;43.850;25.948;2023-02-18T05:23:53;17.02;;;7.00;;
71343;SDS011;59146;43.850;25.948;2023-02-18T05:26:18;11.40;;;7.35;;
71343;SDS011;59146;43.850;25.948;2023-02-18T05:28:44;13.45;;;7.20;;
71343;SDS011;59146;43.850;25.948;2023-02-18T05:31:09;16.23;;;8.18;;
71343;SDS011;59146;43.850;25.948;2023-02-18T05:33:35;10.25;;;7.07;;
71343;SDS011;59146;43.850;25.948;2023-02-18T05:36:00;16.10;;;7.95;;
71343;SDS011;59146;43.850;25.948;2023-02-18T05:38:25;10.98;;;7.15;;
71343;SDS011;59146;43.850;25.948;2023-02-18T05:40:51;15.52;;;8.20;;
71343;SDS011;59146;43.850;25.948;2023-02-18T05:43:16;15.48;;;7.45;;
71343;SDS011;59146;43.850;25.948;2023-02-18T05:45:42;16.75;;;7.80;;
71343;SDS011;59146;43.850;25.948;2023-02-18T05:48:07;11.07;;;7.05;;
71343;SDS011;59146;43.850;25.948;2023-02-18T05:50:33;11.20;;;6.53;;
71343;SDS011;59146;43.850;25.948;2023-02-18T05:52:59;9.93;;;6.65;;
71343;SDS011;59146;43.850;25.948;2023-02-18T05:55:24;11.07;;;6.65;;
71343;SDS011;59146;43.850;25.948;2023-02-18T05:57:50;10.93;;;7.07;;
71343;SDS011;59146;43.850;25.948;2023-02-18T06:00:16;17.27;;;7.80;;
71343;SDS011;59146;43.850;25.948;2023-02-18T06:02:42;11.65;;;6.82;;
71343;SDS011;59146;43.850;25.948;2023-02-18T06:05:08;14.90;;;7.57;;
71343;SDS011;59146;43.850;25.948;2023-02-18T06:07:34;13.20;;;6.90;;
71343;SDS011;59146;43.850;25.948;2023-02-18T06:09:59;10.98;;;7.45;;
71343;SDS011;59146;43.850;25.948;2023-02-18T06:12:25;11.70;;;7.32;;
71343;SDS011;59146;43.850;25.948;2023-02-18T06:14:50;12.85;;;6.75;;
71343;SDS011;59146;43.850;25.948;2023-02-18T06:17:15;10.13;;;6.95;;
71343;SDS011;59146;43.850;25.948;2023-02-18T06:19:42;13.57;;;6.57;;
71343;SDS011;59146;43.850;25.948;2023-02-18T06:22:09;15.18;;;7.22;;
71343;SDS011;59146;43.850;25.948;2023-02-18T06:24:35;12.90;;;7.30;;
71343;SDS011;59146;43.850;25.948;2023-02-18T06:27:01;13.82;;;8.13;;
71343;SDS011;59146;43.850;25.948;2023-02-18T06:29:26;16.25;;;6.38;;
71343;SDS011;59146;43.850;25.948;2023-02-18T06:31:54;14.48;;;6.47;;
71343;SDS011;59146;43.850;25.948;2023-02-18T06:34:19;11.52;;;7.28;;
71343;SDS011;59146;43.850;25.948;2023-02-18T06:36:45;10.98;;;7.30;;
71343;SDS011;59146;43.850;25.948;2023-02-18T06:39:10;17.10;;;7.28;;
71343;SDS011;59146;43.850;25.948;2023-02-18T06:41:36;11.88;;;7.50;;
71343;SDS011;59146;43.850;25.948;2023-02-18T06:44:01;14.13;;;7.05;;
71343;SDS011;59146;43.850;25.948;2023-02-18T06:46:26;14.15;;;7.70;;
71343;SDS011;59146;43.850;25.948;2023-02-18T06:48:52;13.75;;;6.80;;
71343;SDS011;59146;43.850;25.948;2023-02-18T06:51:17;15.80;;;8.35;;
71343;SDS011;59146;43.850;25.948;2023-02-18T06:53:43;14.02;;;7.13;;
71343;SDS011;59146;43.850;25.948;2023-02-18T06:56:09;13.32;;;8.38;;
71343;SDS011;59146;43.850;25.948;2023-02-18T06:58:35;13.20;;;7.80;;
71343;SDS011;59146;43.850;25.948;2023-02-18T07:01:00;15.43;;;9.07;;
71343;SDS011;59146;43.850;25.948;2023-02-18T07:03:26;15.05;;;8.43;;
71343;SDS011;59146;43.850;25.948;2023-02-18T07:05:51;11.27;;;7.18;;
71343;SDS011;59146;43.850;25.948;2023-02-18T07:08:17;13.48;;;7.13;;
71343;SDS011;59146;43.850;25.948;2023-02-18T07:10:42;14.80;;;8.25;;
71343;SDS011;59146;43.850;25.948;2023-02-18T07:13:08;10.52;;;7.82;;
71343;SDS011;59146;43.850;25.948;2023-02-18T07:15:33;13.55;;;7.53;;
71343;SDS011;59146;43.850;25.948;2023-02-18T07:17:59;14.15;;;7.50;;
71343;SDS011;59146;43.850;25.948;2023-02-18T07:20:25;12.18;;;7.10;;
71343;SDS011;59146;43.850;25.948;2023-02-18T07:22:51;17.10;;;7.90;;
71343;SDS011;59146;43.850;25.948;2023-02-18T07:25:16;21.25;;;9.05;;
71343;SDS011;59146;43.850;25.948;2023-02-18T07:27:42;23.50;;;8.75;;
71343;SDS011;59146;43.850;25.948;2023-02-18T07:30:07;13.65;;;7.30;;
71343;SDS011;59146;43.850;25.948;2023-02-18T07:32:34;12.63;;;7.70;;
71343;SDS011;59146;43.850;25.948;2023-02-18T07:34:59;19.23;;;8.25;;
71343;SDS011;59146;43.850;25.948;2023-02-18T07:37:24;20.90;;;7.85;;
71343;SDS011;59146;43.850;25.948;2023-02-18T07:39:50;14.73;;;7.43;;
71343;SDS011;59146;43.850;25.948;2023-02-18T07:42:15;24.92;;;7.78;;
71343;SDS011;59146;43.850;25.948;2023-02-18T07:44:41;16.42;;;7.15;;
71343;SDS011;59146;43.850;25.948;2023-02-18T07:47:06;18.60;;;7.60;;
71343;SDS011;59146;43.850;25.948;2023-02-18T07:49:34;25.67;;;7.75;;
71343;SDS011;59146;43.850;25.948;2023-02-18T07:52:00;20.67;;;8.15;;
71343;SDS011;59146;43.850;25.948;2023-02-18T07:54:25;22.08;;;7.78;;
71343;SDS011;59146;43.850;25.948;2023-02-18T07:56:51;26.40;;;8.57;;
71343;SDS011;59146;43.850;25.948;2023-02-18T07:59:18;16.77;;;7.78;;
71343;SDS011;59146;43.850;25.948;2023-02-18T08:01:44;11.10;;;6.88;;
71343;SDS011;59146;43.850;25.948;2023-02-18T08:04:10;23.05;;;7.65;;
71343;SDS011;59146;43.850;25.948;2023-02-18T08:06:39;13.43;;;7.07;;
71343;SDS011;59146;43.850;25.948;2023-02-18T08:09:06;22.90;;;7.90;;
71343;SDS011;59146;43.850;25.948;2023-02-18T08:11:32;16.88;;;7.93;;
71343;SDS011;59146;43.850;25.948;2023-02-18T08:13:58;25.92;;;7.70;;
71343;SDS011;59146;43.850;25.948;2023-02-18T08:16:23;13.18;;;6.32;;
71343;SDS011;59146;43.850;25.948;2023-02-18T08:18:50;26.02;;;8.00;;
71343;SDS011;59146;43.850;25.948;2023-02-18T08:21:16;18.50;;;7.35;;
71343;SDS011;59146;43.850;25.948;2023-02-18T08:23:43;13.18;;;6.50;;
71343;SDS011;59146;43.850;25.948;2023-02-18T08:26:09;20.52;;;6.75;;
71343;SDS011;59146;43.850;25.948;2023-02-18T08:28:35;20.00;;;7.38;;
71343;SDS011;59146;43.850;25.948;2023-02-18T08:31:00;31.52;;;7.45;;
71343;SDS011;59146;43.850;25.948;2023-02-18T08:33:26;24.63;;;7.85;;
71343;SDS011;59146;43.850;25.948;2023-02-18T08:35:54;11.85;;;7.05;;
71343;SDS011;59146;43.850;25.948;2023-02-18T08:38:21;17.50;;;6.72;;
71343;SDS011;59146;43.850;25.948;2023-02-18T08:40:48;16.05;;;7.78;;
71343;SDS011;59146;43.850;25.948;2023-02-18T08:43:14;14.50;;;6.28;;
71343;SDS011;59146;43.850;25.948;2023-02-18T08:45:42;15.18;;;7.28;;
71343;SDS011;59146;43.850;25.948;2023-02-18T08:48:09;22.65;;;6.97;;
71343;SDS011;59146;43.850;25.948;2023-02-18T08:50:36;13.48;;;7.30;;
71343;SDS011;59146;43.850;25.948;2023-02-18T08:53:02;18.65;;;7.07;;
71343;SDS011;59146;43.850;25.948;2023-02-18T08:55:31;24.40;;;7.95;;
71343;SDS011;59146;43.850;25.948;2023-02-18T08:57:57;20.37;;;7.00;;
71343;SDS011;59146;43.850;25.948;2023-02-18T09:00:24;29.95;;;8.10;;
71343;SDS011;59146;43.850;25.948;2023-02-18T09:02:50;29.10;;;7.10;;
71343;SDS011;59146;43.850;25.948;2023-02-18T09:05:17;25.90;;;8.00;;
71343;SDS011;59146;43.850;25.948;2023-02-18T09:07:42;25.00;;;7.55;;
71343;SDS011;59146;43.850;25.948;2023-02-18T09:10:08;27.75;;;8.00;;
71343;SDS011;59146;43.850;25.948;2023-02-18T09:12:34;17.60;;;7.50;;
71343;SDS011;59146;43.850;25.948;2023-02-18T09:15:00;32.28;;;9.25;;
71343;SDS011;59146;43.850;25.948;2023-02-18T09:17:26;40.22;;;8.10;;
71343;SDS011;59146;43.850;25.948;2023-02-18T09:19:51;18.50;;;7.30;;
71343;SDS011;59146;43.850;25.948;2023-02-18T09:22:17;21.50;;;7.65;;
71343;SDS011;59146;43.850;25.948;2023-02-18T09:24:43;14.73;;;7.80;;
71343;SDS011;59146;43.850;25.948;2023-02-18T09:27:09;12.25;;;6.65;;
71343;SDS011;59146;43.850;25.948;2023-02-18T09:29:36;22.10;;;8.13;;
71343;SDS011;59146;43.850;25.948;2023-02-18T09:32:03;13.55;;;8.05;;
71343;SDS011;59146;43.850;25.948;2023-02-18T09:34:29;24.95;;;7.72;;
71343;SDS011;59146;43.850;25.948;2023-02-18T09:36:54;67.13;;;9.50;;
71343;SDS011;59146;43.850;25.948;2023-02-18T09:39:20;21.45;;;9.40;;
71343;SDS011;59146;43.850;25.948;2023-02-18T09:44:26;18.88;;;7.85;;
71343;SDS011;59146;43.850;25.948;2023-02-18T09:47:17;31.02;;;8.75;;
71343;SDS011;59146;43.850;25.948;2023-02-18T09:50:11;29.20;;;7.80;;
71343;SDS011;59146;43.850;25.948;2023-02-18T09:52:43;24.77;;;7.07;;
71343;SDS011;59146;43.850;25.948;2023-02-18T09:57:41;14.00;;;8.10;;
71343;SDS011;59146;43.850;25.948;2023-02-18T10:02:55;12.05;;;7.50;;
71343;SDS011;59146;43.850;25.948;2023-02-18T10:07:49;14.18;;;7.57;;
71343;SDS011;59146;43.850;25.948;2023-02-18T10:10:33;16.48;;;7.18;;
71343;SDS011;59146;43.850;25.948;2023-02-18T10:12:59;32.67;;;7.93;;
71343;SDS011;59146;43.850;25.948;2023-02-18T10:15:27;21.35;;;7.40;;
71343;SDS011;59146;43.850;25.948;2023-02-18T10:17:54;17.23;;;7.15;;
71343;SDS011;59146;43.850;25.948;2023-02-18T10:20:22;14.30;;;7.45;;
71343;SDS011;59146;43.850;25.948;2023-02-18T10:22:50;16.88;;;7.15;;
71343;SDS011;59146;43.850;25.948;2023-02-18T10:25:19;17.55;;;7.20;;
71343;SDS011;59146;43.850;25.948;2023-02-18T10:27:47;17.95;;;8.60;;
71343;SDS011;59146;43.850;25.948;2023-02-18T10:32:39;12.13;;;8.00;;
71343;SDS011;59146;43.850;25.948;2023-02-18T10:35:16;30.42;;;7.82;;
71343;SDS011;59146;43.850;25.948;2023-02-18T10:43:28;12.75;;;7.22;;
71343;SDS011;59146;43.850;25.948;2023-02-18T10:46:12;16.45;;;7.45;;
71343;SDS011;59146;43.850;25.948;2023-02-18T10:51:26;19.27;;;7.13;;
71343;SDS011;59146;43.850;25.948;2023-02-18T10:53:55;30.15;;;9.50;;
71343;SDS011;59146;43.850;25.948;2023-02-18T10:57:08;14.77;;;6.90;;
71343;SDS011;59146;43.850;25.948;2023-02-18T10:59:31;21.90;;;7.38;;
71343;SDS011;59146;43.850;25.948;2023-02-18T11:01:59;13.60;;;7.72;;
71343;SDS011;59146;43.850;25.948;2023-02-18T11:04:27;20.38;;;7.05;;
71343;SDS011;59146;43.850;25.948;2023-02-18T11:07:20;11.43;;;6.57;;
71343;SDS011;59146;43.850;25.948;2023-02-18T11:17:34;13.75;;;7.28;;
71343;SDS011;59146;43.850;25.948;2023-02-18T11:20:04;12.75;;;7.75;;
71343;SDS011;59146;43.850;25.948;2023-02-18T11:22:46;14.57;;;7.38;;
71343;SDS011;59146;43.850;25.948;2023-02-18T11:25:18;13.52;;;7.68;;
71343;SDS011;59146;43.850;25.948;2023-02-18T11:27:45;13.38;;;7.47;;
71343;SDS011;59146;43.850;25.948;2023-02-18T11:30:26;15.43;;;7.45;;
71343;SDS011;59146;43.850;25.948;2023-02-18T11:33:08;18.15;;;7.32;;
71343;SDS011;59146;43.850;25.948;2023-02-18T11:35:38;12.68;;;8.20;;
71343;SDS011;59146;43.850;25.948;2023-02-18T11:38:13;14.50;;;8.30;;
71343;SDS011;59146;43.850;25.948;2023-02-18T11:40:53;10.20;;;7.63;;
71343;SDS011;59146;43.850;25.948;2023-02-18T11:43:20;12.38;;;7.45;;
71343;SDS011;59146;43.850;25.948;2023-02-18T11:45:45;11.48;;;7.72;;
71343;SDS011;59146;43.850;25.948;2023-02-18T11:48:15;14.88;;;7.05;;
71343;SDS011;59146;43.850;25.948;2023-02-18T11:50:42;13.82;;;7.78;;
71343;SDS011;59146;43.850;25.948;2023-02-18T11:56:02;16.92;;;8.68;;
71343;SDS011;59146;43.850;25.948;2023-02-18T11:58:41;14.85;;;7.47;;
71343;SDS011;59146;43.850;25.948;2023-02-18T12:02:00;13.45;;;8.05;;
71343;SDS011;59146;43.850;25.948;2023-02-18T12:04:03;18.15;;;7.70;;
71343;SDS011;59146;43.850;25.948;2023-02-18T12:06:34;13.00;;;8.50;;
71343;SDS011;59146;43.850;25.948;2023-02-18T12:09:13;19.27;;;8.10;;
71343;SDS011;59146;43.850;25.948;2023-02-18T12:14:21;15.68;;;8.00;;
71343;SDS011;59146;43.850;25.948;2023-02-18T12:16:56;14.35;;;6.88;;
71343;SDS011;59146;43.850;25.948;2023-02-18T12:19:33;13.25;;;7.65;;
71343;SDS011;59146;43.850;25.948;2023-02-18T12:22:20;15.32;;;7.05;;
71343;SDS011;59146;43.850;25.948;2023-02-18T12:27:30;19.08;;;7.90;;
71343;SDS011;59146;43.850;25.948;2023-02-18T12:38:52;11.77;;;7.65;;
71343;SDS011;59146;43.850;25.948;2023-02-18T12:49:13;20.58;;;7.65;;
71343;SDS011;59146;43.850;25.948;2023-02-18T12:54:41;13.38;;;8.02;;
71343;SDS011;59146;43.850;25.948;2023-02-18T13:02:44;13.82;;;7.85;;
71343;SDS011;59146;43.850;25.948;2023-02-18T13:13:38;15.95;;;8.18;;
71343;SDS011;59146;43.850;25.948;2023-02-18T13:16:11;19.60;;;8.50;;
71343;SDS011;59146;43.850;25.948;2023-02-18T13:21:13;17.70;;;7.57;;
71343;SDS011;59146;43.850;25.948;2023-02-18T13:26:23;11.82;;;8.60;;
71343;SDS011;59146;43.850;25.948;2023-02-18T13:31:39;13.80;;;8.73;;
71343;SDS011;59146;43.850;25.948;2023-02-18T13:34:24;18.73;;;8.15;;
71343;SDS011;59146;43.850;25.948;2023-02-18T13:39:56;13.73;;;7.63;;
71343;SDS011;59146;43.850;25.948;2023-02-18T13:52:49;10.32;;;6.55;;
71343;SDS011;59146;43.850;25.948;2023-02-18T13:55:17;16.98;;;8.02;;
71343;SDS011;59146;43.850;25.948;2023-02-18T13:57:47;13.87;;;7.47;;
71343;SDS011;59146;43.850;25.948;2023-02-18T14:00:21;18.40;;;7.68;;
71343;SDS011;59146;43.850;25.948;2023-02-18T14:02:56;17.80;;;8.90;;
71343;SDS011;59146;43.850;25.948;2023-02-18T14:05:24;12.48;;;7.97;;
71343;SDS011;59146;43.850;25.948;2023-02-18T14:08:05;18.65;;;9.35;;
71343;SDS011;59146;43.850;25.948;2023-02-18T14:10:37;15.82;;;8.73;;
71343;SDS011;59146;43.850;25.948;2023-02-18T14:15:52;16.90;;;7.70;;
71343;SDS011;59146;43.850;25.948;2023-02-18T14:18:23;11.07;;;7.15;;
71343;SDS011;59146;43.850;25.948;2023-02-18T14:20:50;11.00;;;7.13;;
71343;SDS011;59146;43.850;25.948;2023-02-18T14:25:48;11.20;;;6.80;;
71343;SDS011;59146;43.850;25.948;2023-02-18T14:31:02;13.95;;;7.22;;
71343;SDS011;59146;43.850;25.948;2023-02-18T14:33:59;14.65;;;7.25;;
71343;SDS011;59146;43.850;25.948;2023-02-18T14:39:32;10.05;;;6.38;;
71343;SDS011;59146;43.850;25.948;2023-02-18T14:50:36;10.88;;;6.57;;
71343;SDS011;59146;43.850;25.948;2023-02-18T14:53:06;17.50;;;6.90;;
71343;SDS011;59146;43.850;25.948;2023-02-18T14:55:37;14.63;;;7.20;;
71343;SDS011;59146;43.850;25.948;2023-02-18T15:01:06;12.43;;;6.97;;
71343;SDS011;59146;43.850;25.948;2023-02-18T15:03:40;12.57;;;7.18;;
71343;SDS011;59146;43.850;25.948;2023-02-18T15:06:20;15.45;;;6.82;;
71343;SDS011;59146;43.850;25.948;2023-02-18T15:08:50;13.57;;;6.55;;
71343;SDS011;59146;43.850;25.948;2023-02-18T15:11:15;15.20;;;7.45;;
71343;SDS011;59146;43.850;25.948;2023-02-18T15:13:43;17.08;;;6.72;;
71343;SDS011;59146;43.850;25.948;2023-02-18T15:16:15;12.82;;;8.13;;
71343;SDS011;59146;43.850;25.948;2023-02-18T15:18:50;13.73;;;7.22;;
71343;SDS011;59146;43.850;25.948;2023-02-18T15:21:20;12.20;;;7.13;;
71343;SDS011;59146;43.850;25.948;2023-02-18T15:23:51;9.38;;;6.68;;
71343;SDS011;59146;43.850;25.948;2023-02-18T15:26:17;11.32;;;6.85;;
71343;SDS011;59146;43.850;25.948;2023-02-18T15:28:57;19.48;;;7.35;;
71343;SDS011;59146;43.850;25.948;2023-02-18T15:31:29;12.35;;;7.57;;
71343;SDS011;59146;43.850;25.948;2023-02-18T15:33:59;13.93;;;7.30;;
71343;SDS011;59146;43.850;25.948;2023-02-18T15:36:25;13.13;;;7.18;;
71343;SDS011;59146;43.850;25.948;2023-02-18T15:38:51;15.93;;;7.35;;
71343;SDS011;59146;43.850;25.948;2023-02-18T15:41:17;17.58;;;8.10;;
71343;SDS011;59146;43.850;25.948;2023-02-18T15:44:03;12.82;;;7.03;;
71343;SDS011;59146;43.850;25.948;2023-02-18T15:46:32;10.82;;;7.55;;
71343;SDS011;59146;43.850;25.948;2023-02-18T15:48:58;18.42;;;7.47;;
71343;SDS011;59146;43.850;25.948;2023-02-18T15:51:26;12.73;;;7.78;;
71343;SDS011;59146;43.850;25.948;2023-02-18T15:53:55;10.75;;;6.20;;
71343;SDS011;59146;43.850;25.948;2023-02-18T15:56:32;10.75;;;7.55;;
71343;SDS011;59146;43.850;25.948;2023-02-18T15:59:07;10.75;;;7.00;;
71343;SDS011;59146;43.850;25.948;2023-02-18T16:01:46;14.48;;;6.95;;
71343;SDS011;59146;43.850;25.948;2023-02-18T16:04:14;10.68;;;7.32;;
71343;SDS011;59146;43.850;25.948;2023-02-18T16:06:44;12.15;;;7.88;;
71343;SDS011;59146;43.850;25.948;2023-02-18T16:11:49;13.90;;;7.72;;
71343;SDS011;59146;43.850;25.948;2023-02-18T16:14:23;11.40;;;6.88;;
71343;SDS011;59146;43.850;25.948;2023-02-18T16:17:10;12.52;;;7.28;;
71343;SDS011;59146;43.850;25.948;2023-02-18T16:19:50;11.15;;;7.53;;
71343;SDS011;59146;43.850;25.948;2023-02-18T16:22:42;9.25;;;6.53;;
71343;SDS011;59146;43.850;25.948;2023-02-18T16:27:37;15.65;;;7.55;;
71343;SDS011;59146;43.850;25.948;2023-02-18T16:30:15;10.50;;;7.22;;
71343;SDS011;59146;43.850;25.948;2023-02-18T16:32:43;11.82;;;6.85;;
71343;SDS011;59146;43.850;25.948;2023-02-18T16:35:08;14.13;;;7.57;;
71343;SDS011;59146;43.850;25.948;2023-02-18T16:37:34;10.98;;;8.27;;
71343;SDS011;59146;43.850;25.948;2023-02-18T16:40:03;16.77;;;7.40;;
71343;SDS011;59146;43.850;25.948;2023-02-18T16:42:29;14.25;;;7.97;;
71343;SDS011;59146;43.850;25.948;2023-02-18T16:44:54;11.75;;;7.05;;
71343;SDS011;59146;43.850;25.948;2023-02-18T16:47:20;13.45;;;7.25;;
71343;SDS011;59146;43.850;25.948;2023-02-18T16:49:46;14.15;;;8.38;;
71343;SDS011;59146;43.850;25.948;2023-02-18T16:52:14;13.52;;;6.90;;
71343;SDS011;59146;43.850;25.948;2023-02-18T16:54:42;10.45;;;7.20;;
71343;SDS011;59146;43.850;25.948;2023-02-18T16:57:08;11.25;;;6.90;;
71343;SDS011;59146;43.850;25.948;2023-02-18T16:59:35;14.85;;;6.75;;
71343;SDS011;59146;43.850;25.948;2023-02-18T17:02:00;13.48;;;7.50;;
71343;SDS011;59146;43.850;25.948;2023-02-18T17:04:26;13.13;;;6.90;;
71343;SDS011;59146;43.850;25.948;2023-02-18T17:06:51;19.02;;;7.85;;
71343;SDS011;59146;43.850;25.948;2023-02-18T17:09:17;12.85;;;7.43;;
71343;SDS011;59146;43.850;25.948;2023-02-18T17:11:46;12.30;;;7.50;;